Time;durP1;ratioP1;P1;durP2;ratioP2;P2;SDS_P1;SDS_P2;PMS_P1;PMS_P2;Temp;Humidity;BMP_temperature;BMP_pressure;BME280_temperature;BME280_humidity;BME280_pressure;Samples;Min_cycle;Max_cycle;Signal;HPM_P1;HPM_P2
2023/11/20 00:00:00;;;;;;;19.25;5.53;;;11.80;99.90;;;;;;5005565;28;20479;-73
2023/11/20 00:02:26;;;;;;;24.52;5.20;;;11.90;99.90;;;;;;4992888;28;20399;-73
2023/11/20 00:04:54;;;;;;;17.30;4.50;;;11.80;99.90;;;;;;5008805;28;20044;-72
2023/11/20 00:07:23;;;;;;;25.48;4.97;;;11.80;99.90;;;;;;4996301;28;20107;-72
2023/11/20 00:09:49;;;;;;;22.05;4.60;;;11.70;99.90;;;;;;5009256;28;20060;-72
2023/11/20 00:12:15;;;;;;;18.02;4.82;;;11.80;99.90;;;;;;5000703;28;20038;-72
2023/11/20 00:14:41;;;;;;;18.52;4.50;;;11.70;99.90;;;;;;5008554;28;20398;-72
2023/11/20 00:17:06;;;;;;;15.30;3.70;;;11.70;99.90;;;;;;5002114;28;20042;-72
2023/11/20 00:19:32;;;;;;;18.88;3.58;;;11.80;99.90;;;;;;4983333;28;20056;-72
2023/11/20 00:21:58;;;;;;;16.85;4.25;;;11.80;99.90;;;;;;5006523;28;20266;-73
2023/11/20 00:24:30;;;;;;;17.58;3.65;;;11.70;99.90;;;;;;5009404;28;20103;-72
2023/11/20 00:26:56;;;;;;;17.52;3.97;;;11.80;99.90;;;;;;4982232;28;20049;-72
2023/11/20 00:29:22;;;;;;;16.98;3.58;;;11.70;99.90;;;;;;4998445;28;20558;-73
2023/11/20 00:31:48;;;;;;;13.65;3.72;;;11.70;99.90;;;;;;4993964;28;20180;-72
2023/11/20 00:34:13;;;;;;;14.85;4.60;;;11.70;99.90;;;;;;5004411;28;20496;-72
2023/11/20 00:36:39;;;;;;;20.23;4.63;;;11.70;99.90;;;;;;5006395;28;20076;-72
2023/11/20 00:39:05;;;;;;;26.45;5.88;;;11.70;99.90;;;;;;5007176;28;20044;-72
2023/11/20 00:41:34;;;;;;;22.05;5.22;;;11.70;99.90;;;;;;5006665;28;21483;-73
2023/11/20 00:44:00;;;;;;;23.85;5.28;;;11.70;99.90;;;;;;5019444;28;20041;-72
2023/11/20 00:46:26;;;;;;;23.42;6.03;;;11.70;99.90;;;;;;5008723;28;20056;-72
2023/11/20 00:48:54;;;;;;;26.80;6.07;;;11.80;99.90;;;;;;5005565;28;20041;-73
2023/11/20 00:51:21;;;;;;;23.95;5.60;;;11.80;99.90;;;;;;5006440;28;20053;-72
2023/11/20 00:53:49;;;;;;;24.73;5.60;;;11.70;99.90;;;;;;5006460;28;20037;-72
2023/11/20 00:56:19;;;;;;;21.20;6.10;;;11.70;99.90;;;;;;4993166;28;20539;-72
2023/11/20 00:58:44;;;;;;;17.50;4.90;;;11.70;99.90;;;;;;5007804;28;20040;-82
2023/11/20 01:01:10;;;;;;;26.73;5.68;;;11.70;99.90;;;;;;4990891;28;20404;-72
2023/11/20 01:03:37;;;;;;;18.95;4.53;;;11.70;99.90;;;;;;5007061;28;20045;-72
2023/11/20 01:06:04;;;;;;;18.10;3.88;;;11.70;99.90;;;;;;5003576;28;20045;-73
2023/11/20 01:08:33;;;;;;;15.30;3.80;;;11.70;99.90;;;;;;4995012;28;20061;-72
2023/11/20 01:10:59;;;;;;;19.83;3.92;;;11.70;99.90;;;;;;4998664;28;20838;-72
2023/11/20 01:13:27;;;;;;;16.48;3.95;;;11.70;99.90;;;;;;4996874;28;20492;-73
2023/11/20 01:15:53;;;;;;;16.75;3.70;;;11.70;99.90;;;;;;5001883;28;20099;-73
2023/11/20 01:18:19;;;;;;;14.85;3.45;;;11.70;99.90;;;;;;4985306;28;20045;-72
2023/11/20 01:20:45;;;;;;;12.88;3.17;;;11.70;99.90;;;;;;5007738;28;20064;-73
2023/11/20 01:23:11;;;;;;;13.73;3.17;;;11.70;99.90;;;;;;4988160;28;20050;-73
2023/11/20 01:25:37;;;;;;;12.73;3.20;;;11.70;99.90;;;;;;5004403;28;20064;-73
2023/11/20 01:28:03;;;;;;;8.70;3.30;;;11.70;99.90;;;;;;4998675;28;20121;-73
2023/11/20 01:30:28;;;;;;;8.05;2.35;;;11.70;99.90;;;;;;5000175;28;20500;-73
2023/11/20 01:32:54;;;;;;;9.32;2.33;;;11.70;99.90;;;;;;5008228;28;20045;-73
2023/11/20 01:35:20;;;;;;;9.05;2.33;;;11.70;99.90;;;;;;5001622;28;20132;-72
2023/11/20 01:37:46;;;;;;;8.57;2.80;;;11.70;99.90;;;;;;5007754;28;20678;-73
2023/11/20 01:40:19;;;;;;;11.68;3.00;;;11.70;99.90;;;;;;5006097;28;20053;-72
2023/11/20 01:42:45;;;;;;;12.55;3.40;;;11.70;99.90;;;;;;4991489;28;20038;-73
2023/11/20 01:45:11;;;;;;;11.93;3.33;;;11.70;99.90;;;;;;5000768;28;20048;-72
2023/11/20 01:47:38;;;;;;;12.23;3.05;;;11.70;99.90;;;;;;4988119;28;20156;-72
2023/11/20 01:50:11;;;;;;;18.63;4.00;;;11.70;99.90;;;;;;5004401;28;20480;-72
2023/11/20 01:52:42;;;;;;;15.13;4.13;;;11.70;99.90;;;;;;4995186;28;20531;-72
2023/11/20 01:55:13;;;;;;;11.63;3.58;;;11.70;99.90;;;;;;4989731;28;20516;-71
2023/11/20 01:57:43;;;;;;;11.95;3.92;;;11.70;99.90;;;;;;4996383;28;20116;-72
2023/11/20 02:00:12;;;;;;;14.60;4.00;;;11.70;99.90;;;;;;4986731;28;20096;-72
2023/11/20 02:02:40;;;;;;;14.52;4.78;;;11.70;99.90;;;;;;4990464;28;20048;-72
2023/11/20 02:05:06;;;;;;;15.90;4.53;;;11.70;99.90;;;;;;5006499;28;20045;-72
2023/11/20 02:07:38;;;;;;;15.50;3.88;;;11.70;99.90;;;;;;5001976;28;20050;-72
2023/11/20 02:10:05;;;;;;;12.20;3.33;;;11.70;99.90;;;;;;4992275;28;20046;-72
2023/11/20 02:12:31;;;;;;;12.68;3.28;;;11.70;99.90;;;;;;5003092;28;20049;-72
2023/11/20 02:14:57;;;;;;;8.45;2.50;;;11.70;99.90;;;;;;5009740;28;20492;-72
2023/11/20 02:17:23;;;;;;;10.07;2.20;;;11.70;99.90;;;;;;5005381;28;20132;-72
2023/11/20 02:19:48;;;;;;;6.38;1.95;;;11.60;99.90;;;;;;4998588;28;20136;-71
2023/11/20 02:22:15;;;;;;;6.45;2.30;;;11.60;99.90;;;;;;4996168;28;20041;-71
2023/11/20 02:24:43;;;;;;;7.93;1.90;;;11.60;99.90;;;;;;4992177;28;20107;-71
2023/11/20 02:27:39;;;;;;;7.70;2.10;;;11.60;99.90;;;;;;4995383;28;20033;-72
2023/11/20 02:30:05;;;;;;;10.98;2.33;;;11.60;99.90;;;;;;4996652;28;20124;-72
2023/11/20 02:32:32;;;;;;;7.72;2.28;;;11.60;99.90;;;;;;5009605;28;20057;-72
2023/11/20 02:34:57;;;;;;;11.55;2.67;;;11.60;99.90;;;;;;5009530;28;20080;-72
2023/11/20 02:37:27;;;;;;;12.02;3.42;;;11.60;99.90;;;;;;4996503;28;20143;-72
2023/11/20 02:39:52;;;;;;;10.05;3.15;;;11.60;99.90;;;;;;5009699;28;20041;-71
2023/11/20 02:42:20;;;;;;;11.75;3.40;;;11.60;99.90;;;;;;5007298;28;20111;-71
2023/11/20 02:44:46;;;;;;;8.70;3.67;;;11.60;99.90;;;;;;5005084;28;20156;-71
2023/11/20 02:47:12;;;;;;;13.38;4.40;;;11.60;99.90;;;;;;4990773;28;20041;-71
2023/11/20 02:49:37;;;;;;;11.73;3.55;;;11.60;99.90;;;;;;4992197;28;20301;-71
2023/11/20 02:52:07;;;;;;;14.05;3.38;;;11.60;99.90;;;;;;5006925;28;20076;-71
2023/11/20 02:54:33;;;;;;;9.33;3.00;;;11.60;99.90;;;;;;5005957;28;20456;-71
2023/11/20 02:57:00;;;;;;;10.82;2.75;;;11.60;99.90;;;;;;4996646;28;20308;-71
2023/11/20 02:59:27;;;;;;;10.50;3.45;;;11.60;99.90;;;;;;5005302;28;20053;-71
2023/11/20 03:01:54;;;;;;;10.57;2.42;;;11.60;99.90;;;;;;5003706;28;20056;-72
2023/11/20 03:04:20;;;;;;;6.40;2.05;;;11.50;99.90;;;;;;5006899;28;20053;-72
2023/11/20 03:06:46;;;;;;;7.35;1.98;;;11.50;99.90;;;;;;5008274;28;20037;-73
2023/11/20 03:09:12;;;;;;;4.43;1.80;;;11.60;99.90;;;;;;5013885;28;20053;-72
2023/11/20 03:11:38;;;;;;;7.75;2.03;;;11.60;99.90;;;;;;4987528;28;20119;-73
2023/11/20 03:14:04;;;;;;;7.38;2.15;;;11.50;99.90;;;;;;5002601;28;20050;-73
2023/11/20 03:16:33;;;;;;;8.45;2.33;;;11.50;99.90;;;;;;5006500;28;20098;-73
2023/11/20 03:18:59;;;;;;;7.38;2.20;;;11.50;99.90;;;;;;4988548;28;20033;-73
2023/11/20 03:21:28;;;;;;;7.90;2.78;;;11.50;99.90;;;;;;5003185;28;20220;-73
2023/11/20 03:23:54;;;;;;;12.15;2.97;;;11.50;99.90;;;;;;4993255;28;20049;-73
2023/11/20 03:26:24;;;;;;;12.70;2.30;;;11.50;99.90;;;;;;5008775;28;20714;-73
2023/11/20 03:28:50;;;;;;;6.55;1.73;;;11.50;99.90;;;;;;5009120;28;20424;-73
2023/11/20 03:31:19;;;;;;;8.13;1.55;;;11.50;99.90;;;;;;5010999;28;20061;-73
2023/11/20 03:33:46;;;;;;;7.23;1.70;;;11.50;99.90;;;;;;5005049;28;20409;-73
2023/11/20 03:36:14;;;;;;;3.80;1.30;;;11.50;99.90;;;;;;5011302;28;20387;-73
2023/11/20 03:38:41;;;;;;;5.03;1.30;;;11.50;99.90;;;;;;5004966;28;20043;-73
2023/11/20 03:41:07;;;;;;;4.15;0.90;;;11.50;99.90;;;;;;5004504;28;20044;-73
2023/11/20 03:43:34;;;;;;;4.10;1.10;;;11.50;99.90;;;;;;4986692;28;20038;-73
2023/11/20 03:46:00;;;;;;;4.28;0.80;;;11.50;99.90;;;;;;5012267;28;20103;-73
2023/11/20 03:48:26;;;;;;;2.75;0.80;;;11.50;99.90;;;;;;4988817;28;20396;-73
2023/11/20 03:50:55;;;;;;;3.67;0.90;;;11.50;99.90;;;;;;5004557;28;20052;-73
2023/11/20 03:53:21;;;;;;;2.60;1.00;;;11.40;99.90;;;;;;5010174;28;20068;-73
2023/11/20 03:55:46;;;;;;;4.20;0.95;;;11.50;99.90;;;;;;5006340;28;20041;-73
2023/11/20 03:58:12;;;;;;;3.70;0.93;;;11.40;99.90;;;;;;5000910;28;20179;-73
2023/11/20 04:00:38;;;;;;;6.15;1.00;;;11.50;99.90;;;;;;5008997;28;20052;-73
2023/11/20 04:03:04;;;;;;;2.20;0.80;;;11.40;99.90;;;;;;5006075;28;20118;-73
2023/11/20 04:05:29;;;;;;;4.22;1.00;;;11.40;99.90;;;;;;5007355;28;20608;-73
2023/11/20 04:07:56;;;;;;;3.55;0.98;;;11.40;99.90;;;;;;5006139;28;20038;-82
2023/11/20 04:10:22;;;;;;;2.60;0.82;;;11.50;99.90;;;;;;4991708;28;20065;-82
2023/11/20 04:12:48;;;;;;;4.30;0.95;;;11.40;99.90;;;;;;5005775;28;20375;-82
2023/11/20 04:15:13;;;;;;;3.55;1.17;;;11.40;99.90;;;;;;5016517;28;20531;-82
2023/11/20 04:17:39;;;;;;;5.50;1.13;;;11.40;99.90;;;;;;5011733;28;20037;-82
2023/11/20 04:20:06;;;;;;;4.57;1.63;;;11.40;99.90;;;;;;5016780;28;20491;-82
2023/11/20 04:22:32;;;;;;;6.90;1.85;;;11.40;99.90;;;;;;5011198;28;20044;-82
2023/11/20 04:25:00;;;;;;;7.47;1.90;;;11.40;99.90;;;;;;4988545;28;20041;-82
2023/11/20 04:27:26;;;;;;;7.25;2.00;;;11.40;99.90;;;;;;4990051;28;20060;-82
2023/11/20 04:29:55;;;;;;;8.15;2.30;;;11.40;99.90;;;;;;4992130;28;20468;-82
2023/11/20 04:32:20;;;;;;;4.57;1.75;;;11.40;99.90;;;;;;4990986;28;21089;-82
2023/11/20 04:34:46;;;;;;;4.68;1.58;;;11.40;99.90;;;;;;5010747;28;20446;-82
2023/11/20 04:37:12;;;;;;;5.28;1.80;;;11.30;99.90;;;;;;4999761;28;20041;-82
2023/11/20 04:39:37;;;;;;;3.53;1.48;;;11.30;99.90;;;;;;4992582;28;20600;-73
2023/11/20 04:42:09;;;;;;;5.47;1.67;;;11.30;99.90;;;;;;4989451;28;20037;-73
2023/11/20 04:44:35;;;;;;;6.00;1.25;;;11.30;99.90;;;;;;5007616;28;20046;-73
2023/11/20 04:47:02;;;;;;;3.30;1.05;;;11.30;99.90;;;;;;4992416;28;20041;-73
2023/11/20 04:49:28;;;;;;;5.72;1.67;;;11.30;99.90;;;;;;5011348;28;20056;-73
2023/11/20 04:51:53;;;;;;;3.97;1.10;;;11.30;99.90;;;;;;4989662;28;20042;-72
2023/11/20 04:54:19;;;;;;;3.58;1.00;;;11.30;99.90;;;;;;5004500;28;20034;-73
2023/11/20 04:56:45;;;;;;;4.25;1.10;;;11.30;99.90;;;;;;5002202;28;20301;-73
2023/11/20 04:59:11;;;;;;;5.18;1.45;;;11.30;99.90;;;;;;5002454;28;20049;-82
2023/11/20 05:01:37;;;;;;;4.10;1.52;;;11.30;99.90;;;;;;4990499;28;20484;-82
2023/11/20 05:04:03;;;;;;;4.20;1.83;;;11.30;99.90;;;;;;5000816;28;20041;-82
2023/11/20 05:06:30;;;;;;;5.45;1.60;;;11.30;99.90;;;;;;4986937;28;20069;-82
2023/11/20 05:08:56;;;;;;;4.60;1.63;;;11.30;99.90;;;;;;4992298;28;20404;-82
2023/11/20 05:11:23;;;;;;;3.40;1.52;;;11.30;99.90;;;;;;4985661;28;20061;-82
2023/11/20 05:13:50;;;;;;;5.82;1.70;;;11.30;99.90;;;;;;4992642;28;20045;-82
2023/11/20 05:16:16;;;;;;;6.68;2.15;;;11.30;99.90;;;;;;5001179;28;20060;-82
2023/11/20 05:18:42;;;;;;;6.95;1.67;;;11.30;99.90;;;;;;5001731;28;20048;-81
2023/11/20 05:21:08;;;;;;;5.45;1.50;;;11.20;99.90;;;;;;4987382;28;20050;-82
2023/11/20 05:23:33;;;;;;;5.63;1.80;;;11.30;99.90;;;;;;4986103;28;20077;-81
2023/11/20 05:25:59;;;;;;;4.28;1.30;;;11.20;99.90;;;;;;5008168;28;20412;-82
2023/11/20 05:28:25;;;;;;;5.65;1.40;;;11.20;99.90;;;;;;5004616;28;20054;-81
2023/11/20 05:30:51;;;;;;;4.95;1.45;;;11.20;99.90;;;;;;5008762;28;20045;-82
2023/11/20 05:33:22;;;;;;;6.32;1.63;;;11.20;99.90;;;;;;4995472;28;20053;-82
2023/11/20 05:35:47;;;;;;;5.53;1.30;;;11.20;99.90;;;;;;5005727;28;20421;-82
2023/11/20 05:38:16;;;;;;;7.15;1.90;;;11.20;99.90;;;;;;4990487;28;20053;-82
2023/11/20 05:40:42;;;;;;;7.03;1.70;;;11.20;99.90;;;;;;5000084;28;20077;-72
2023/11/20 05:43:11;;;;;;;5.13;1.42;;;11.20;99.90;;;;;;4988641;28;20705;-72
2023/11/20 05:45:36;;;;;;;6.30;1.90;;;11.20;99.90;;;;;;4980910;28;20111;-72
2023/11/20 05:48:02;;;;;;;6.47;2.08;;;11.20;99.90;;;;;;4999843;28;20033;-72
2023/11/20 05:50:28;;;;;;;10.60;2.42;;;11.10;99.90;;;;;;5009111;28;20045;-72
2023/11/20 05:52:54;;;;;;;7.05;2.35;;;11.10;99.90;;;;;;4994130;28;20091;-73
2023/11/20 05:55:20;;;;;;;6.65;2.05;;;11.10;99.90;;;;;;5010938;28;20057;-72
2023/11/20 05:57:45;;;;;;;10.38;3.05;;;11.10;99.90;;;;;;4988960;28;20172;-72
2023/11/20 06:00:11;;;;;;;10.80;3.17;;;11.10;99.90;;;;;;5004323;28;20229;-73
2023/11/20 06:02:37;;;;;;;6.35;2.60;;;11.10;99.90;;;;;;5005765;28;20033;-73
2023/11/20 06:05:03;;;;;;;8.55;2.75;;;11.00;99.90;;;;;;5011487;28;20033;-72
2023/11/20 06:07:29;;;;;;;10.27;3.00;;;11.10;99.90;;;;;;4999765;28;20136;-73
2023/11/20 06:09:55;;;;;;;8.13;2.67;;;11.00;99.90;;;;;;5002003;28;20180;-72
2023/11/20 06:12:20;;;;;;;8.18;2.83;;;11.00;99.90;;;;;;5001080;28;20048;-72
2023/11/20 06:14:46;;;;;;;9.05;2.78;;;11.00;99.90;;;;;;5009319;28;20046;-72
2023/11/20 06:17:12;;;;;;;5.32;2.25;;;11.00;99.90;;;;;;4984066;28;20049;-73
2023/11/20 06:19:38;;;;;;;9.50;2.78;;;11.00;99.90;;;;;;4991932;28;20053;-73
2023/11/20 06:22:04;;;;;;;8.38;2.75;;;10.90;99.90;;;;;;5012622;28;20047;-72
2023/11/20 06:24:32;;;;;;;9.18;2.80;;;10.90;99.90;;;;;;5007145;28;20041;-72
2023/11/20 06:26:58;;;;;;;11.18;2.58;;;10.90;99.90;;;;;;4989895;28;20098;-72
2023/11/20 06:29:23;;;;;;;7.93;2.45;;;10.90;99.90;;;;;;4985234;28;20042;-72
2023/11/20 06:31:49;;;;;;;10.00;2.58;;;10.90;99.90;;;;;;5000392;28;20053;-72
2023/11/20 06:34:15;;;;;;;4.63;1.80;;;10.90;99.90;;;;;;5011004;28;20105;-72
2023/11/20 06:36:40;;;;;;;7.88;2.03;;;10.90;99.90;;;;;;4985199;28;20042;-72
2023/11/20 06:39:06;;;;;;;5.68;1.80;;;10.90;99.90;;;;;;4994559;28;20121;-72
2023/11/20 06:41:32;;;;;;;5.63;1.95;;;10.90;99.90;;;;;;5002380;28;20046;-73
2023/11/20 06:43:58;;;;;;;6.90;1.88;;;10.90;99.90;;;;;;5004562;28;20041;-73
2023/11/20 06:46:25;;;;;;;8.82;2.70;;;10.80;99.90;;;;;;4990921;28;20052;-72
2023/11/20 06:48:51;;;;;;;6.60;2.35;;;10.90;99.90;;;;;;5011724;28;20555;-72
2023/11/20 06:51:20;;;;;;;4.95;1.98;;;10.90;99.90;;;;;;4989346;28;20056;-73
2023/11/20 06:53:46;;;;;;;5.00;2.10;;;10.90;99.90;;;;;;4993173;28;20134;-73
2023/11/20 06:56:22;;;;;;;7.90;2.42;;;10.80;99.90;;;;;;5008735;28;20088;-73
2023/11/20 06:58:48;;;;;;;8.65;2.65;;;10.80;99.90;;;;;;4999838;28;20520;-72
2023/11/20 07:01:14;;;;;;;10.45;2.70;;;10.80;99.90;;;;;;4993126;28;20050;-72
2023/11/20 07:03:43;;;;;;;7.22;2.92;;;10.80;99.90;;;;;;5010057;28;20053;-73
2023/11/20 07:06:11;;;;;;;8.60;2.60;;;10.80;99.90;;;;;;4984354;28;20044;-72
2023/11/20 07:08:37;;;;;;;9.70;2.78;;;10.80;99.90;;;;;;5002322;28;20034;-81
2023/11/20 07:11:03;;;;;;;5.70;1.88;;;10.80;99.90;;;;;;5009434;28;20079;-81
2023/11/20 07:13:28;;;;;;;6.93;2.92;;;10.80;99.90;;;;;;5000462;28;20092;-82
2023/11/20 07:15:54;;;;;;;10.30;3.25;;;10.80;99.90;;;;;;5007869;28;20034;-82
2023/11/20 07:18:20;;;;;;;11.40;2.88;;;10.80;99.90;;;;;;4991457;28;20195;-82
2023/11/20 07:20:46;;;;;;;15.43;3.67;;;10.80;99.90;;;;;;5008784;28;20131;-82
2023/11/20 07:23:12;;;;;;;8.50;3.20;;;10.70;99.90;;;;;;5007053;28;20040;-81
2023/11/20 07:25:38;;;;;;;9.80;2.92;;;10.80;99.90;;;;;;5007339;28;20037;-81
2023/11/20 07:28:04;;;;;;;15.20;3.50;;;10.80;99.90;;;;;;5010876;28;20601;-82
2023/11/20 07:30:33;;;;;;;12.48;3.35;;;10.70;99.90;;;;;;5012750;28;20045;-83
2023/11/20 07:33:00;;;;;;;11.57;4.00;;;10.70;99.90;;;;;;5005499;28;20046;-82
2023/11/20 07:35:26;;;;;;;16.42;4.63;;;10.70;99.90;;;;;;5014066;28;20083;-82
2023/11/20 07:37:52;;;;;;;18.35;5.03;;;10.70;99.90;;;;;;5011333;28;20491;-82
2023/11/20 07:40:18;;;;;;;26.45;6.38;;;10.70;99.90;;;;;;4991131;28;20064;-82
2023/11/20 07:42:45;;;;;;;24.63;7.03;;;10.70;99.90;;;;;;5003434;28;20045;-81
2023/11/20 07:45:12;;;;;;;27.25;6.50;;;10.70;99.90;;;;;;4986176;28;20041;-81
2023/11/20 07:47:39;;;;;;;30.15;7.80;;;10.70;99.90;;;;;;4997694;28;20045;-82
2023/11/20 07:50:06;;;;;;;28.55;7.05;;;10.70;99.90;;;;;;5004770;28;20060;-81
2023/11/20 07:52:33;;;;;;;35.13;8.10;;;10.70;99.90;;;;;;4993738;28;20056;-81
2023/11/20 07:54:59;;;;;;;31.95;6.93;;;10.70;99.90;;;;;;5007090;28;20041;-80
2023/11/20 07:57:26;;;;;;;32.65;8.30;;;10.70;99.90;;;;;;4988735;28;20056;-82
2023/11/20 07:59:55;;;;;;;33.42;7.53;;;10.70;99.90;;;;;;4992305;28;20060;-81
2023/11/20 08:02:21;;;;;;;32.42;7.18;;;10.70;99.90;;;;;;5004223;28;20884;-81
2023/11/20 08:04:47;;;;;;;34.28;7.35;;;10.70;99.90;;;;;;4990198;28;20401;-82
2023/11/20 08:07:13;;;;;;;23.00;6.47;;;10.70;99.90;;;;;;5008372;28;20044;-80
2023/11/20 08:09:39;;;;;;;38.83;7.63;;;10.80;99.90;;;;;;4994253;28;20049;-80
2023/11/20 08:12:05;;;;;;;31.60;7.68;;;10.80;99.90;;;;;;5013324;28;20045;-83
2023/11/20 08:14:37;;;;;;;37.15;6.60;;;10.70;99.90;;;;;;4997777;28;20480;-81
2023/11/20 08:17:03;;;;;;;30.67;6.72;;;10.80;99.90;;;;;;5016087;28;20045;-80
2023/11/20 08:19:29;;;;;;;38.88;7.00;;;10.80;99.90;;;;;;5020276;28;20056;-81
2023/11/20 08:21:55;;;;;;;30.98;6.90;;;10.70;99.90;;;;;;4995600;28;20041;-80
2023/11/20 08:24:21;;;;;;;27.33;5.65;;;10.80;99.90;;;;;;4991784;28;20033;-80
2023/11/20 08:26:50;;;;;;;25.95;6.72;;;10.80;99.90;;;;;;4990230;28;20779;-80
2023/11/20 08:29:16;;;;;;;30.25;6.30;;;10.80;99.90;;;;;;5004900;28;20038;-81
2023/11/20 08:31:48;;;;;;;29.80;5.88;;;10.70;99.90;;;;;;5007870;28;20143;-80
2023/11/20 08:34:14;;;;;;;39.03;6.25;;;10.70;99.90;;;;;;4981345;28;20084;-81
2023/11/20 08:36:42;;;;;;;28.83;6.22;;;10.80;99.90;;;;;;4989876;28;20068;-81
2023/11/20 08:39:11;;;;;;;29.58;6.28;;;10.80;99.90;;;;;;4981323;28;20103;-81
2023/11/20 08:41:41;;;;;;;24.52;6.30;;;10.70;99.90;;;;;;4988556;28;20053;-80
2023/11/20 08:44:07;;;;;;;23.63;5.47;;;10.80;99.90;;;;;;5005412;28;20088;-81
2023/11/20 08:46:34;;;;;;;26.60;5.63;;;10.70;99.90;;;;;;4983792;28;20046;-80
2023/11/20 08:49:00;;;;;;;29.50;5.40;;;10.70;99.90;;;;;;5005627;28;20049;-81
2023/11/20 08:51:27;;;;;;;31.92;6.25;;;10.70;99.90;;;;;;5001891;28;20073;-80
2023/11/20 08:53:53;;;;;;;32.60;5.85;;;10.80;99.90;;;;;;5009150;28;20503;-80
2023/11/20 08:56:19;;;;;;;29.15;5.53;;;10.80;99.90;;;;;;5000125;28;20496;-80
2023/11/20 08:58:48;;;;;;;26.52;5.75;;;10.80;99.90;;;;;;4992348;28;20041;-81
2023/11/20 09:01:14;;;;;;;29.95;5.85;;;10.80;99.90;;;;;;4998820;28;20401;-81
2023/11/20 09:03:40;;;;;;;25.02;5.32;;;10.80;99.90;;;;;;4998910;28;20080;-81
2023/11/20 09:06:06;;;;;;;26.48;5.50;;;10.80;99.90;;;;;;4991437;28;20560;-81
2023/11/20 09:08:32;;;;;;;24.80;5.18;;;10.80;99.90;;;;;;4991781;28;20056;-81
2023/11/20 09:10:58;;;;;;;24.45;5.05;;;10.90;99.90;;;;;;4984279;28;20448;-81
2023/11/20 09:13:23;;;;;;;26.17;5.35;;;10.90;99.90;;;;;;4998930;28;20053;-81
2023/11/20 09:15:49;;;;;;;23.10;4.85;;;10.90;99.90;;;;;;5007710;28;20069;-81
2023/11/20 09:18:15;;;;;;;27.35;4.88;;;10.90;99.90;;;;;;5001521;28;20037;-81
2023/11/20 09:20:41;;;;;;;27.60;4.88;;;10.90;99.90;;;;;;4995809;28;20042;-81
2023/11/20 09:23:06;;;;;;;22.58;4.32;;;10.90;99.90;;;;;;4996145;28;20112;-81
2023/11/20 09:25:33;;;;;;;19.60;4.03;;;10.80;99.90;;;;;;4988773;28;20052;-81
2023/11/20 09:27:59;;;;;;;24.20;4.78;;;10.80;99.90;;;;;;5000803;28;20073;-81
2023/11/20 09:30:25;;;;;;;24.00;4.95;;;10.90;99.90;;;;;;4999131;28;20053;-81
2023/11/20 09:32:51;;;;;;;25.67;4.90;;;10.80;99.90;;;;;;4991040;28;20056;-81
2023/11/20 09:35:20;;;;;;;28.45;5.75;;;10.90;99.90;;;;;;4988232;28;20046;-81
2023/11/20 09:37:47;;;;;;;26.13;5.03;;;10.90;99.90;;;;;;4977592;28;20049;-81
2023/11/20 09:40:13;;;;;;;30.05;5.32;;;10.90;99.90;;;;;;4989062;28;20050;-81
2023/11/20 09:42:41;;;;;;;28.25;5.22;;;10.90;99.90;;;;;;5004370;28;20535;-81
2023/11/20 09:45:39;;;;;;;27.65;5.18;;;10.90;99.90;;;;;;4986028;28;20045;-81
2023/11/20 09:48:06;;;;;;;28.90;4.80;;;11.00;99.90;;;;;;4999753;28;20447;-80
2023/11/20 09:50:37;;;;;;;26.90;5.15;;;11.10;99.90;;;;;;5001847;28;20104;-81
2023/11/20 09:53:08;;;;;;;30.05;5.28;;;11.10;99.90;;;;;;4997362;28;20048;-81
2023/11/20 09:55:36;;;;;;;23.52;5.20;;;11.10;99.90;;;;;;5005457;28;20049;-81
2023/11/20 09:58:02;;;;;;;22.45;4.25;;;11.20;99.90;;;;;;5002475;28;20121;-81
2023/11/20 10:00:28;;;;;;;21.88;4.40;;;11.30;99.90;;;;;;4982707;28;20134;-81
2023/11/20 10:02:54;;;;;;;22.85;4.57;;;11.30;99.90;;;;;;4989090;28;20079;-80
2023/11/20 10:05:26;;;;;;;25.05;4.97;;;11.30;99.90;;;;;;5009278;28;20099;-81
2023/11/20 10:07:56;;;;;;;24.50;4.68;;;11.40;99.90;;;;;;4988820;28;20072;-81
2023/11/20 10:10:22;;;;;;;23.00;4.10;;;11.40;99.90;;;;;;4996571;28;20892;-80
2023/11/20 10:12:48;;;;;;;26.60;4.63;;;11.40;99.90;;;;;;4992464;28;20704;-81
2023/11/20 10:15:17;;;;;;;18.88;4.32;;;11.40;99.90;;;;;;4985409;28;20377;-80
2023/11/20 10:17:43;;;;;;;22.00;4.53;;;11.30;99.90;;;;;;4987338;28;20049;-80
2023/11/20 10:20:09;;;;;;;17.15;3.75;;;11.30;99.90;;;;;;4993016;28;20069;-81
2023/11/20 10:22:38;;;;;;;23.90;3.67;;;11.30;99.90;;;;;;4999491;28;20397;-81
2023/11/20 10:25:05;;;;;;;25.00;4.95;;;11.30;99.90;;;;;;5011131;28;20079;-81
2023/11/20 10:27:32;;;;;;;22.98;4.22;;;11.40;99.90;;;;;;5014123;28;20052;-81
2023/11/20 10:29:58;;;;;;;24.10;4.95;;;11.50;99.90;;;;;;4987102;28;20632;-81
2023/11/20 10:32:27;;;;;;;28.42;5.38;;;11.40;99.90;;;;;;5001542;28;20041;-82
2023/11/20 10:35:13;;;;;;;21.27;4.57;;;11.50;99.90;;;;;;5005688;28;20396;-81
2023/11/20 10:37:58;;;;;;;22.85;4.78;;;11.60;99.90;;;;;;4999904;28;20076;-80
2023/11/20 10:40:25;;;;;;;24.48;4.75;;;11.60;99.90;;;;;;5005979;28;20057;-80
2023/11/20 10:42:52;;;;;;;23.65;5.50;;;11.70;99.90;;;;;;4981614;28;20097;-80
2023/11/20 10:45:19;;;;;;;20.55;5.00;;;11.70;99.90;;;;;;4989771;28;20058;-81
2023/11/20 10:47:46;;;;;;;23.10;4.35;;;11.70;99.90;;;;;;4991800;28;20106;-80
2023/11/20 10:50:14;;;;;;;22.88;4.80;;;11.80;99.90;;;;;;4991941;28;20049;-80
2023/11/20 10:52:41;;;;;;;21.95;4.35;;;11.80;99.90;;;;;;4999420;28;20053;-81
2023/11/20 10:55:13;;;;;;;27.50;5.38;;;11.80;99.90;;;;;;4988399;28;20046;-81
2023/11/20 10:57:39;;;;;;;22.38;4.47;;;11.80;99.90;;;;;;5005769;28;20099;-81
2023/11/20 11:00:10;;;;;;;25.40;5.07;;;11.80;99.90;;;;;;4992144;28;20030;-81
2023/11/20 11:02:44;;;;;;;25.10;4.53;;;11.70;99.90;;;;;;5005074;28;20060;-81
2023/11/20 11:05:12;;;;;;;22.98;4.47;;;11.60;99.90;;;;;;4995347;28;20088;-82
2023/11/20 11:07:39;;;;;;;24.13;4.40;;;11.60;99.90;;;;;;4993597;28;20038;-81
2023/11/20 11:10:15;;;;;;;18.00;4.43;;;11.50;99.90;;;;;;5005790;28;20045;-81
2023/11/20 11:12:43;;;;;;;22.90;4.97;;;11.50;99.90;;;;;;4998728;28;20046;-82
2023/11/20 11:15:15;;;;;;;25.40;5.13;;;11.40;99.90;;;;;;5017748;28;20101;-81
2023/11/20 11:17:48;;;;;;;25.25;5.30;;;11.40;99.90;;;;;;4991356;28;20562;-81
2023/11/20 11:20:18;;;;;;;24.85;5.00;;;11.40;99.90;;;;;;4990589;28;20030;-81
2023/11/20 11:22:56;;;;;;;24.58;4.90;;;11.30;99.90;;;;;;4999215;28;20114;-82
2023/11/20 11:25:28;;;;;;;24.67;4.88;;;11.30;99.90;;;;;;4999687;28;20385;-81
2023/11/20 11:27:57;;;;;;;19.83;5.00;;;11.30;99.90;;;;;;4987125;28;20049;-81
2023/11/20 11:30:34;;;;;;;25.38;4.93;;;11.40;99.90;;;;;;4992946;28;20068;-81
2023/11/20 11:33:22;;;;;;;31.92;6.50;;;11.40;99.90;;;;;;4987762;28;20128;-79
2023/11/20 11:35:56;;;;;;;28.70;5.97;;;11.50;99.90;;;;;;4979105;28;20401;-80
2023/11/20 11:38:47;;;;;;;21.98;5.13;;;11.60;99.90;;;;;;5009918;28;20084;-80
2023/11/20 11:41:26;;;;;;;22.65;4.90;;;11.60;99.90;;;;;;5002328;28;20049;-80
2023/11/20 11:44:04;;;;;;;24.05;5.93;;;11.60;99.90;;;;;;5007613;28;20146;-80
2023/11/20 11:46:34;;;;;;;25.00;5.10;;;11.60;99.90;;;;;;5006044;28;20176;-83
2023/11/20 11:49:22;;;;;;;26.08;5.28;;;11.60;99.90;;;;;;5004344;28;20044;-79
2023/11/20 11:52:02;;;;;;;21.23;5.22;;;11.40;99.90;;;;;;4989122;28;20461;-80
2023/11/20 11:54:30;;;;;;;22.15;5.68;;;11.40;99.90;;;;;;5001760;28;20239;-81
2023/11/20 11:57:05;;;;;;;31.65;6.10;;;11.30;99.90;;;;;;4979626;28;20106;-80
2023/11/20 11:59:42;;;;;;;23.77;5.32;;;11.30;99.90;;;;;;4979342;28;20053;-81
2023/11/20 12:02:10;;;;;;;23.10;5.18;;;11.30;99.90;;;;;;4993093;28;20037;-80
2023/11/20 12:04:51;;;;;;;23.75;4.70;;;11.30;99.90;;;;;;4987732;28;20408;-81
2023/11/20 12:07:36;;;;;;;17.90;4.85;;;11.30;99.90;;;;;;4990051;28;20461;-80
2023/11/20 12:10:04;;;;;;;19.67;4.90;;;11.40;99.90;;;;;;4989935;28;20052;-80
2023/11/20 12:12:48;;;;;;;22.05;5.05;;;11.40;99.90;;;;;;4979252;28;20050;-80
2023/11/20 12:16:03;;;;;;;23.80;4.43;;;11.40;99.90;;;;;;5003042;28;20068;-81
2023/11/20 12:18:34;;;;;;;23.10;4.50;;;11.40;99.90;;;;;;4988425;28;20053;-80
2023/11/20 12:21:04;;;;;;;25.60;5.28;;;11.40;99.90;;;;;;4991150;28;20046;-81
2023/11/20 12:23:31;;;;;;;24.13;4.97;;;11.40;99.90;;;;;;4998157;28;20197;-80
2023/11/20 12:26:02;;;;;;;17.63;4.32;;;11.40;99.90;;;;;;5013100;28;20044;-79
2023/11/20 12:28:32;;;;;;;26.83;4.88;;;11.40;99.90;;;;;;4999752;28;20053;-80
2023/11/20 12:31:06;;;;;;;20.55;4.40;;;11.50;99.90;;;;;;4997364;28;20504;-80
2023/11/20 12:33:52;;;;;;;26.17;4.93;;;11.50;99.90;;;;;;5002095;28;20053;-80
2023/11/20 12:36:21;;;;;;;24.42;4.90;;;11.50;99.90;;;;;;4990478;28;20120;-80
2023/11/20 12:38:53;;;;;;;20.67;4.32;;;11.50;99.90;;;;;;4983889;28;20045;-80
2023/11/20 12:41:23;;;;;;;23.65;5.10;;;11.50;99.90;;;;;;4994421;28;20117;-80
2023/11/20 12:43:49;;;;;;;23.27;5.18;;;11.40;99.90;;;;;;5002931;28;20046;-80